Time;durP1;ratioP1;P1;durP2;ratioP2;P2;SDS_P1;SDS_P2;PMS_P1;PMS_P2;Temp;Humidity;BMP_temperature;BMP_pressure;BME280_temperature;BME280_humidity;BME280_pressure;Samples;Min_cycle;Max_cycle;Signal;HPM_P1;HPM_P2
2021/12/16 00:02:52;;;;;;;22.35;11.85;;;3.70;99.90;;;;;;2011347;70;21062;-92
2021/12/16 00:05:44;;;;;;;24.40;13.35;;;3.70;99.90;;;;;;2028761;70;21082;-91
2021/12/16 00:08:31;;;;;;;25.32;13.53;;;3.70;99.90;;;;;;2035161;70;21046;-92
2021/12/16 00:11:24;;;;;;;27.22;13.98;;;3.70;99.90;;;;;;2028806;70;21078;-92
2021/12/16 00:32:22;;;;;;;22.20;12.37;;;3.70;99.90;;;;;;2070907;69;21026;-93
2021/12/16 00:35:12;;;;;;;25.30;13.93;;;3.70;99.90;;;;;;2056683;69;21169;-93
2021/12/16 00:38:03;;;;;;;23.80;12.75;;;3.70;99.90;;;;;;2034643;70;21108;-92
2021/12/16 00:41:13;;;;;;;25.70;13.32;;;3.70;99.90;;;;;;1984077;72;21082;-92
2021/12/16 00:44:12;;;;;;;22.02;12.53;;;3.70;99.90;;;;;;2045799;69;21196;-93
2021/12/16 00:47:02;;;;;;;20.77;11.75;;;3.70;99.90;;;;;;2071121;69;21045;-94
2021/12/16 00:50:04;;;;;;;20.60;11.73;;;3.70;99.90;;;;;;2053950;69;21023;-95
2021/12/16 00:55:59;;;;;;;20.95;12.05;;;3.70;99.90;;;;;;2034549;70;21027;-93
2021/12/16 00:58:54;;;;;;;20.60;11.65;;;3.80;99.90;;;;;;2048878;69;21066;-93
2021/12/16 01:01:52;;;;;;;18.60;11.85;;;3.80;99.90;;;;;;2044838;69;21015;-92
2021/12/16 01:05:02;;;;;;;19.32;10.30;;;3.70;99.90;;;;;;2071053;69;21067;-91
2021/12/16 01:34:10;;;;;;;18.98;11.18;;;3.70;99.90;;;;;;2034393;70;21039;-93
2021/12/16 01:37:29;;;;;;;19.35;11.38;;;3.70;99.90;;;;;;2035458;70;21157;-93
2021/12/16 01:40:16;;;;;;;18.77;11.00;;;3.70;99.90;;;;;;2033027;70;21079;-91
2021/12/16 01:46:57;;;;;;;18.02;11.53;;;3.70;99.90;;;;;;2070110;69;21084;-92
2021/12/16 01:55:48;;;;;;;19.50;11.33;;;3.80;99.90;;;;;;1925031;73;21067;-92
2021/12/16 01:58:40;;;;;;;20.82;12.28;;;3.80;99.90;;;;;;1916207;74;21128;-91
2021/12/16 02:01:33;;;;;;;19.40;11.80;;;3.80;99.90;;;;;;1911779;74;21169;-92
2021/12/16 02:11:41;;;;;;;19.70;12.03;;;3.80;99.90;;;;;;1944004;72;21086;-92
2021/12/16 02:36:45;;;;;;;23.57;14.13;;;3.80;99.90;;;;;;1976563;72;22116;-92
2021/12/16 02:39:36;;;;;;;19.20;12.93;;;3.80;99.90;;;;;;1934512;73;21168;-92
2021/12/16 02:42:37;;;;;;;21.33;12.60;;;3.70;99.90;;;;;;1918050;75;21071;-92
2021/12/16 02:48:30;;;;;;;20.97;13.70;;;3.70;99.90;;;;;;1976433;72;22213;-92
2021/12/16 02:54:07;;;;;;;21.50;14.13;;;3.70;99.90;;;;;;1953521;72;22123;-92
2021/12/16 02:59:40;;;;;;;19.57;13.35;;;3.80;99.90;;;;;;1944216;72;22135;-92
2021/12/16 03:02:32;;;;;;;20.80;12.78;;;3.70;99.90;;;;;;1890462;75;21071;-92
2021/12/16 03:05:23;;;;;;;20.40;12.58;;;3.80;99.90;;;;;;1888085;75;21044;-92
2021/12/16 03:08:14;;;;;;;19.30;11.85;;;3.80;99.90;;;;;;1905409;75;21095;-93
2021/12/16 03:11:32;;;;;;;19.42;12.10;;;3.70;99.90;;;;;;1875254;75;21063;-91
2021/12/16 03:14:30;;;;;;;16.40;10.50;;;3.70;99.90;;;;;;1883621;75;21055;-90
2021/12/16 03:17:25;;;;;;;20.72;12.18;;;3.80;99.90;;;;;;1883645;75;21075;-91
2021/12/16 03:20:18;;;;;;;20.82;12.43;;;3.80;99.90;;;;;;1905715;75;21056;-92
2021/12/16 03:23:22;;;;;;;19.98;12.10;;;3.70;99.90;;;;;;1887049;75;21092;-92
2021/12/16 03:26:43;;;;;;;20.40;11.20;;;3.70;99.90;;;;;;1881938;75;21556;-91
2021/12/16 03:35:32;;;;;;;21.73;12.20;;;3.60;99.90;;;;;;1909600;75;21147;-92
2021/12/16 03:41:06;;;;;;;21.60;12.28;;;3.60;99.90;;;;;;1931291;72;22269;-92
2021/12/16 03:43:59;;;;;;;20.12;12.15;;;3.60;99.90;;;;;;1892971;75;21125;-92
2021/12/16 03:46:52;;;;;;;21.48;12.07;;;3.60;99.90;;;;;;1895669;75;21121;-94
2021/12/16 03:54:37;;;;;;;17.30;10.68;;;3.60;99.90;;;;;;1989787;71;22158;-92
2021/12/16 03:57:32;;;;;;;18.15;11.38;;;3.60;99.90;;;;;;1988648;72;21051;-92
2021/12/16 04:00:26;;;;;;;19.12;11.12;;;3.60;99.90;;;;;;2049610;69;21103;-92
2021/12/16 04:03:19;;;;;;;19.15;11.68;;;3.60;99.90;;;;;;2070766;69;21159;-92
2021/12/16 04:06:32;;;;;;;19.77;12.40;;;3.70;99.90;;;;;;2045111;69;21026;-91
2021/12/16 04:09:25;;;;;;;19.32;11.38;;;3.70;99.90;;;;;;2053417;69;21081;-91
2021/12/16 04:12:25;;;;;;;17.60;10.35;;;3.70;99.90;;;;;;2063635;69;21113;-92
2021/12/16 04:15:18;;;;;;;18.10;11.78;;;3.70;99.90;;;;;;2050979;69;21151;-92
2021/12/16 04:18:12;;;;;;;19.15;11.80;;;3.70;99.90;;;;;;2033614;70;21399;-92
2021/12/16 04:21:04;;;;;;;19.90;12.55;;;3.70;99.90;;;;;;2021200;71;21081;-93
2021/12/16 04:23:57;;;;;;;18.50;12.45;;;3.80;99.90;;;;;;2042395;69;21066;-91
2021/12/16 04:26:51;;;;;;;19.35;12.20;;;3.70;99.90;;;;;;2033869;70;21073;-91
2021/12/16 04:32:31;;;;;;;20.30;11.88;;;3.80;99.90;;;;;;1969912;72;22127;-92
2021/12/16 04:35:24;;;;;;;18.12;11.48;;;3.70;99.90;;;;;;1905512;74;21075;-93
2021/12/16 04:38:17;;;;;;;23.70;12.33;;;3.70;99.90;;;;;;1905456;75;21083;-92
2021/12/16 04:41:11;;;;;;;22.10;11.70;;;3.60;99.90;;;;;;1915155;74;21097;-93
2021/12/16 04:44:23;;;;;;;22.17;12.15;;;3.70;99.90;;;;;;1905248;75;21043;-91
2021/12/16 04:47:15;;;;;;;20.02;12.10;;;3.80;99.90;;;;;;1905567;75;21224;-93
2021/12/16 04:50:10;;;;;;;23.60;13.35;;;3.70;99.90;;;;;;1846966;77;21072;-91
2021/12/16 04:53:02;;;;;;;23.50;12.15;;;3.70;99.90;;;;;;1916145;74;21064;-94
2021/12/16 04:55:55;;;;;;;21.30;12.20;;;3.70;99.90;;;;;;1905279;75;21622;-93
2021/12/16 05:01:33;;;;;;;18.15;11.38;;;3.80;99.90;;;;;;1976671;72;22123;-92
2021/12/16 05:04:25;;;;;;;20.48;11.80;;;3.80;99.90;;;;;;1951568;73;21055;-92
2021/12/16 05:07:19;;;;;;;19.00;11.80;;;3.70;99.90;;;;;;1933603;73;21127;-92
2021/12/16 05:12:58;;;;;;;18.12;11.10;;;3.80;99.90;;;;;;1946921;72;22199;-92
2021/12/16 05:15:49;;;;;;;22.85;12.35;;;3.80;99.90;;;;;;1917828;75;21091;-92
2021/12/16 05:18:44;;;;;;;17.17;10.43;;;3.70;99.90;;;;;;1917836;75;21095;-92
2021/12/16 05:24:28;;;;;;;20.40;11.57;;;3.70;99.90;;;;;;1943884;72;22162;-92
2021/12/16 05:27:24;;;;;;;21.50;12.45;;;3.70;99.90;;;;;;1877750;76;21054;-92
2021/12/16 05:30:17;;;;;;;18.82;11.22;;;3.80;99.90;;;;;;1929753;73;21075;-92
2021/12/16 05:33:08;;;;;;;17.70;10.63;;;3.80;99.90;;;;;;1917883;75;21054;-92
2021/12/16 05:36:19;;;;;;;18.17;10.48;;;3.70;99.90;;;;;;1918015;75;21114;-92
2021/12/16 05:39:12;;;;;;;17.42;10.30;;;3.80;99.90;;;;;;1933060;73;21051;-92
2021/12/16 05:42:07;;;;;;;19.45;10.58;;;3.80;99.90;;;;;;1917817;75;21248;-91
2021/12/16 05:45:01;;;;;;;17.42;10.58;;;3.80;99.90;;;;;;1858880;76;21070;-93
2021/12/16 06:01:35;;;;;;;20.02;10.78;;;3.70;99.90;;;;;;1940147;72;22264;-92
2021/12/16 06:04:26;;;;;;;18.05;10.13;;;3.60;99.90;;;;;;1818517;77;21095;-92
2021/12/16 06:07:19;;;;;;;16.12;10.38;;;3.70;99.90;;;;;;1821528;78;21374;-92
2021/12/16 06:10:29;;;;;;;18.48;10.32;;;3.70;99.90;;;;;;1873837;76;21644;-92
2021/12/16 06:13:27;;;;;;;16.32;9.60;;;3.70;99.90;;;;;;1885669;75;21024;-92
2021/12/16 06:26:25;;;;;;;15.50;9.25;;;3.60;99.90;;;;;;2050796;68;22012;-91
2021/12/16 06:29:01;;;;;;;16.75;9.40;;;3.70;99.90;;;;;;2035638;70;21060;-92
2021/12/16 06:31:53;;;;;;;17.35;10.48;;;3.80;99.90;;;;;;2011621;70;21026;-92
2021/12/16 06:35:04;;;;;;;16.20;9.50;;;3.80;99.90;;;;;;1999023;72;21074;-91
2021/12/16 06:37:55;;;;;;;16.45;9.78;;;3.70;99.90;;;;;;2016071;70;21150;-93
2021/12/16 06:40:56;;;;;;;17.30;9.58;;;3.70;99.90;;;;;;2036282;70;21155;-93
2021/12/16 06:54:55;;;;;;;19.07;9.98;;;3.70;99.90;;;;;;2085533;68;22041;-93
2021/12/16 06:57:43;;;;;;;15.75;9.58;;;3.80;99.90;;;;;;2036368;70;21046;-93
2021/12/16 07:00:38;;;;;;;18.73;10.30;;;3.80;99.90;;;;;;2036697;70;21166;-93
2021/12/16 07:03:33;;;;;;;18.42;9.73;;;3.80;99.90;;;;;;2036370;70;21083;-92
2021/12/16 07:06:39;;;;;;;16.80;10.58;;;3.80;99.90;;;;;;2036287;70;21247;-94
2021/12/16 07:09:31;;;;;;;16.45;9.95;;;3.80;99.90;;;;;;2021909;69;21018;-92
2021/12/16 07:12:34;;;;;;;18.48;11.33;;;3.80;99.90;;;;;;2016681;71;21171;-93
2021/12/16 07:15:19;;;;;;;15.25;9.75;;;3.80;99.90;;;;;;2028746;70;21093;-91
2021/12/16 07:18:11;;;;;;;17.92;11.00;;;3.80;99.90;;;;;;2036811;70;21044;-92
2021/12/16 07:21:03;;;;;;;20.20;10.65;;;3.80;99.90;;;;;;2036235;70;21078;-92
2021/12/16 07:23:56;;;;;;;17.62;11.05;;;3.80;99.90;;;;;;2035101;70;21159;-93
2021/12/16 07:26:47;;;;;;;18.40;9.85;;;3.90;99.90;;;;;;1999268;72;21031;-92
2021/12/16 07:29:40;;;;;;;17.75;10.43;;;3.90;99.90;;;;;;1955670;73;21166;-94
2021/12/16 07:32:32;;;;;;;17.90;10.63;;;3.90;99.90;;;;;;1999141;72;21085;-93
2021/12/16 07:35:26;;;;;;;17.52;10.30;;;3.90;99.90;;;;;;2002123;70;21110;-94
2021/12/16 07:38:18;;;;;;;18.90;10.13;;;3.90;99.90;;;;;;2036125;70;21066;-92
2021/12/16 07:41:10;;;;;;;15.95;9.93;;;3.90;99.90;;;;;;2036221;70;21027;-93
2021/12/16 07:44:20;;;;;;;17.48;10.15;;;3.90;99.90;;;;;;2020540;70;21063;-92
2021/12/16 08:18:27;;;;;;;22.37;13.93;;;4.00;99.90;;;;;;1958077;72;22633;-92
2021/12/16 08:21:19;;;;;;;23.15;14.50;;;4.00;99.90;;;;;;1917520;75;21094;-93
2021/12/16 08:24:15;;;;;;;20.05;13.22;;;4.00;99.90;;;;;;1917761;75;21043;-92
2021/12/16 08:27:08;;;;;;;22.32;13.93;;;4.00;99.90;;;;;;1917963;75;21055;-93
2021/12/16 08:30:21;;;;;;;21.57;12.85;;;4.00;99.90;;;;;;1885634;75;21078;-95
2021/12/16 08:33:15;;;;;;;20.57;13.50;;;4.10;99.90;;;;;;1885110;76;21154;-93
2021/12/16 08:36:08;;;;;;;18.80;12.53;;;4.10;99.90;;;;;;1884878;76;21082;-93
2021/12/16 09:09:37;;;;;;;17.62;11.63;;;4.20;99.90;;;;;;1908370;74;22175;-92
2021/12/16 09:15:44;;;;;;;19.37;11.70;;;4.30;99.90;;;;;;1995076;71;22088;-92
2021/12/16 09:18:41;;;;;;;14.95;10.05;;;4.30;99.90;;;;;;1953479;73;21104;-92
2021/12/16 09:21:34;;;;;;;19.30;11.73;;;4.30;99.90;;;;;;2032468;70;21054;-93
2021/12/16 09:24:26;;;;;;;19.90;11.38;;;4.30;99.90;;;;;;2033762;70;21097;-93
2021/12/16 09:27:35;;;;;;;17.95;11.18;;;4.30;99.90;;;;;;2025332;70;21327;-91
2021/12/16 09:30:31;;;;;;;17.92;11.22;;;4.30;99.90;;;;;;1998579;70;21042;-92
2021/12/16 09:33:25;;;;;;;18.95;11.55;;;4.40;99.90;;;;;;2032780;70;21196;-92
2021/12/16 09:36:20;;;;;;;17.77;11.30;;;4.40;99.90;;;;;;2032931;70;21070;-92
2021/12/16 09:39:16;;;;;;;15.50;10.28;;;4.40;99.90;;;;;;2002444;70;21076;-92
2021/12/16 09:42:09;;;;;;;19.70;10.78;;;4.50;99.90;;;;;;2027457;70;21148;-92
2021/12/16 09:45:00;;;;;;;17.12;11.03;;;4.40;99.90;;;;;;2005872;70;21072;-93
2021/12/16 09:47:53;;;;;;;17.42;10.32;;;4.40;99.90;;;;;;1995911;72;21073;-91
2021/12/16 09:50:44;;;;;;;21.47;10.77;;;4.40;99.90;;;;;;1996018;72;21029;-91
2021/12/16 09:53:40;;;;;;;17.77;11.53;;;4.40;99.90;;;;;;2005380;70;21163;-92
2021/12/16 09:56:34;;;;;;;15.28;9.75;;;4.50;99.90;;;;;;2003685;70;21046;-92
2021/12/16 09:59:28;;;;;;;16.48;10.15;;;4.40;99.90;;;;;;1996444;72;21072;-92
2021/12/16 10:02:22;;;;;;;19.98;10.43;;;4.40;99.90;;;;;;2014745;70;21010;-92
2021/12/16 10:05:34;;;;;;;16.90;10.35;;;4.40;99.90;;;;;;2013991;70;21010;-93
2021/12/16 10:08:44;;;;;;;17.85;11.12;;;4.40;99.90;;;;;;2033367;70;21056;-93
2021/12/16 10:11:40;;;;;;;22.10;14.60;;;4.70;99.90;;;;;;2033005;70;21111;-92
2021/12/16 10:14:45;;;;;;;20.50;11.30;;;4.90;99.90;;;;;;2028312;70;21053;-93
2021/12/16 10:17:30;;;;;;;16.57;10.90;;;4.90;99.90;;;;;;2003403;72;21158;-93
2021/12/16 10:20:24;;;;;;;20.12;11.43;;;4.80;99.90;;;;;;2003107;72;21033;-92
2021/12/16 10:23:19;;;;;;;16.45;10.70;;;4.70;99.90;;;;;;2003035;72;21040;-92
2021/12/16 10:26:14;;;;;;;25.95;16.82;;;4.80;99.90;;;;;;2002652;71;21026;-93
2021/12/16 11:56:46;;;;;;;18.17;11.60;;;4.90;99.90;;;;;;2102510;68;22044;-93
2021/12/16 11:59:41;;;;;;;17.57;11.53;;;5.00;99.90;;;;;;2045192;69;21067;-93
2021/12/16 12:02:36;;;;;;;17.67;11.28;;;5.10;99.90;;;;;;1987809;72;21079;-93
2021/12/16 12:48:50;;;;;;;16.95;11.10;;;5.10;99.90;;;;;;2102555;68;22240;-93
2021/12/16 12:51:43;;;;;;;15.55;10.53;;;5.10;99.90;;;;;;2070940;69;21147;-92
2021/12/16 12:54:35;;;;;;;18.87;11.38;;;5.10;99.90;;;;;;2070811;69;21120;-92
2021/12/16 12:57:29;;;;;;;16.60;10.70;;;5.10;99.90;;;;;;2071085;69;21121;-93
2021/12/16 13:00:42;;;;;;;19.17;12.70;;;5.20;99.90;;;;;;2071187;69;21050;-93
2021/12/16 13:03:36;;;;;;;18.02;10.95;;;5.20;99.90;;;;;;2059441;69;21023;-94
2021/12/16 13:06:28;;;;;;;16.90;11.28;;;5.30;99.90;;;;;;2032915;70;21413;-93
2021/12/16 13:09:39;;;;;;;17.42;11.93;;;5.30;99.90;;;;;;1986266;72;21086;-93
2021/12/16 13:12:38;;;;;;;15.50;10.53;;;5.30;99.90;;;;;;2032648;70;21098;-92
2021/12/16 13:15:44;;;;;;;16.40;11.40;;;5.30;99.90;;;;;;2032705;70;21196;-95
2021/12/16 13:25:23;;;;;;;16.60;11.43;;;5.20;99.90;;;;;;2032779;70;21060;-93
2021/12/16 14:02:37;;;;;;;17.75;11.08;;;5.20;99.90;;;;;;1974785;73;21039;-93
2021/12/16 14:05:30;;;;;;;16.62;11.25;;;5.30;99.90;;;;;;1975064;73;21043;-93
2021/12/16 14:08:44;;;;;;;16.30;11.93;;;5.30;99.90;;;;;;1975045;73;21210;-93
2021/12/16 14:14:57;;;;;;;15.03;11.25;;;5.30;99.90;;;;;;1974046;73;21180;-93
2021/12/16 14:17:54;;;;;;;15.23;11.60;;;5.30;99.90;;;;;;1975883;73;21151;-93
2021/12/16 14:24:20;;;;;;;17.00;12.07;;;5.20;99.90;;;;;;1962160;73;21100;-92
2021/12/16 14:27:18;;;;;;;18.90;11.95;;;5.20;99.90;;;;;;1959000;73;21285;-93
2021/12/16 14:43:19;;;;;;;20.02;12.40;;;5.10;99.90;;;;;;1939939;74;21152;-93
2021/12/16 14:46:11;;;;;;;15.98;11.57;;;5.20;99.90;;;;;;1949234;73;21129;-93
2021/12/16 14:49:28;;;;;;;18.48;10.82;;;5.20;99.90;;;;;;1959070;73;21051;-91
2021/12/16 14:52:38;;;;;;;17.90;11.53;;;5.20;99.90;;;;;;1967091;73;21078;-93
2021/12/16 14:55:30;;;;;;;14.07;9.80;;;5.20;99.90;;;;;;1974511;72;21128;-93
2021/12/16 14:58:24;;;;;;;15.13;10.70;;;5.20;99.90;;;;;;1947225;73;21040;-93
2021/12/16 15:01:27;;;;;;;14.03;10.68;;;5.30;99.90;;;;;;1943213;74;21047;-94
2021/12/16 15:04:23;;;;;;;16.60;10.75;;;5.20;99.90;;;;;;1951578;73;21086;-94
2021/12/16 15:07:12;;;;;;;17.92;11.85;;;5.10;99.90;;;;;;1966259;73;21175;-94
2021/12/16 15:10:13;;;;;;;15.78;11.63;;;5.10;99.90;;;;;;1968594;73;21477;-93
2021/12/16 15:13:08;;;;;;;17.80;10.82;;;5.20;99.90;;;;;;1958435;73;21147;-94
2021/12/16 15:16:18;;;;;;;14.40;10.40;;;5.20;99.90;;;;;;1957955;73;21140;-93
2021/12/16 15:38:46;;;;;;;13.00;9.33;;;5.10;99.90;;;;;;1938913;74;21051;-93
2021/12/16 15:44:48;;;;;;;15.35;10.18;;;5.10;99.90;;;;;;1936092;73;21163;-93
2021/12/16 15:47:43;;;;;;;13.38;9.65;;;5.00;99.90;;;;;;1957794;73;21075;-92
2021/12/16 15:50:38;;;;;;;15.78;10.98;;;5.00;99.90;;;;;;1973659;73;21062;-93
2021/12/16 15:53:31;;;;;;;14.80;11.03;;;5.10;99.90;;;;;;1973813;73;21656;-94
2021/12/16 15:56:26;;;;;;;16.73;10.75;;;5.10;99.90;;;;;;1982302;72;21122;-93
2021/12/16 15:59:20;;;;;;;13.85;10.32;;;5.10;99.90;;;;;;1987148;72;21504;-93
2021/12/16 16:02:12;;;;;;;16.30;10.30;;;5.10;99.90;;;;;;1971571;72;21119;-93
2021/12/16 16:05:05;;;;;;;15.72;10.43;;;5.10;99.90;;;;;;1952629;73;21038;-93
2021/12/16 16:08:01;;;;;;;15.85;10.35;;;5.10;99.90;;;;;;1952197;73;21591;-93
2021/12/16 16:10:58;;;;;;;16.82;11.68;;;5.10;99.90;;;;;;1952303;73;21111;-93
2021/12/16 16:13:53;;;;;;;15.70;10.80;;;5.10;99.90;;;;;;1971852;72;21086;-92
2021/12/16 17:19:36;;;;;;;18.10;11.45;;;5.10;99.90;;;;;;1990292;70;21021;-93
2021/12/16 17:49:22;;;;;;;18.95;11.12;;;5.10;99.90;;;;;;1994912;71;22145;-92
2021/12/16 18:21:39;;;;;;;15.68;10.03;;;5.10;99.90;;;;;;2061282;69;22134;-93
2021/12/16 18:24:36;;;;;;;15.70;9.98;;;5.10;99.90;;;;;;2017507;70;21074;-92
2021/12/16 18:27:31;;;;;;;19.80;12.03;;;5.10;99.90;;;;;;2017221;71;21544;-93
2021/12/16 18:30:27;;;;;;;16.65;11.55;;;5.10;99.90;;;;;;1994015;71;21034;-93
2021/12/16 18:33:40;;;;;;;18.37;10.90;;;5.10;99.90;;;;;;1984615;72;21027;-93
2021/12/16 18:36:36;;;;;;;16.37;10.88;;;5.20;99.90;;;;;;1984300;72;21070;-93
2021/12/16 18:39:37;;;;;;;16.30;10.95;;;5.10;99.90;;;;;;1983191;72;21039;-93
2021/12/16 18:42:43;;;;;;;18.27;11.43;;;5.10;99.90;;;;;;1981419;72;21046;-91
2021/12/16 18:45:37;;;;;;;17.23;10.65;;;5.10;99.90;;;;;;1981296;72;21031;-93
2021/12/16 18:48:37;;;;;;;17.12;10.78;;;5.10;99.90;;;;;;1981713;72;21028;-94
2021/12/16 18:51:31;;;;;;;18.02;10.30;;;5.20;99.90;;;;;;1984657;72;21034;-92
2021/12/16 18:54:30;;;;;;;18.10;11.57;;;5.10;99.90;;;;;;1984382;72;21193;-92
2021/12/16 18:57:22;;;;;;;16.80;10.65;;;5.10;99.90;;;;;;1982656;72;21128;-92
2021/12/16 19:00:15;;;;;;;15.98;11.53;;;5.10;99.90;;;;;;1981075;72;21140;-93
2021/12/16 19:03:08;;;;;;;18.67;12.95;;;5.10;99.90;;;;;;1981282;72;21106;-93
2021/12/16 19:06:00;;;;;;;20.50;13.13;;;5.10;99.90;;;;;;1981436;72;21044;-92
2021/12/16 19:08:53;;;;;;;17.52;11.38;;;5.10;99.90;;;;;;1981330;72;21090;-93
2021/12/16 19:12:07;;;;;;;15.00;10.82;;;5.10;99.90;;;;;;1981325;72;21052;-92
2021/12/16 19:15:20;;;;;;;17.05;11.43;;;5.10;99.90;;;;;;1981526;72;21577;-91
2021/12/16 19:18:12;;;;;;;16.80;11.45;;;5.00;99.90;;;;;;1981135;72;21087;-93
2021/12/16 19:24:22;;;;;;;18.32;11.50;;;5.00;99.90;;;;;;2014641;71;22131;-93
2021/12/16 19:27:16;;;;;;;18.45;11.30;;;5.00;99.90;;;;;;1965314;72;21562;-92
2021/12/16 19:30:14;;;;;;;16.23;10.68;;;4.90;99.90;;;;;;2071067;69;21057;-92
2021/12/16 19:33:09;;;;;;;17.55;11.12;;;5.00;99.90;;;;;;2071282;69;21060;-92
2021/12/16 19:36:19;;;;;;;16.57;11.10;;;4.90;99.90;;;;;;2071230;69;21019;-93
2021/12/16 19:39:11;;;;;;;17.23;11.73;;;5.00;99.90;;;;;;2059884;69;21055;-95
2021/12/16 19:42:05;;;;;;;17.95;11.95;;;5.00;99.90;;;;;;1958166;72;21516;-93
2021/12/16 19:44:57;;;;;;;17.73;10.90;;;5.00;99.90;;;;;;1976889;72;21105;-93
2021/12/16 19:47:48;;;;;;;18.17;12.18;;;5.00;99.90;;;;;;2033076;70;21474;-92
2021/12/16 19:50:42;;;;;;;16.27;11.38;;;4.90;99.90;;;;;;2032831;70;21032;-92
2021/12/16 19:53:34;;;;;;;16.65;10.93;;;4.90;99.90;;;;;;2032970;70;21101;-92
2021/12/16 19:56:25;;;;;;;17.73;11.25;;;5.00;99.90;;;;;;2033109;70;21061;-92
2021/12/16 19:59:17;;;;;;;17.23;11.33;;;4.90;99.90;;;;;;2053722;69;21047;-92
2021/12/16 20:02:09;;;;;;;19.67;12.00;;;4.90;99.90;;;;;;2056458;69;21108;-92
2021/12/16 20:05:05;;;;;;;16.50;11.18;;;4.90;99.90;;;;;;2065773;69;21050;-92
2021/12/16 20:07:57;;;;;;;18.67;11.70;;;5.00;99.90;;;;;;2035491;70;21090;-92
2021/12/16 21:59:07;;;;;;;18.45;11.75;;;4.90;99.90;;;;;;1954387;72;22111;-80
2021/12/16 22:01:59;;;;;;;18.50;12.07;;;4.90;99.90;;;;;;1936153;73;21063;-80
2021/12/16 22:07:30;;;;;;;15.95;11.10;;;4.80;99.90;;;;;;1937345;72;22252;-81
2021/12/16 22:10:22;;;;;;;17.67;12.47;;;4.80;99.90;;;;;;1900258;74;21131;-80
2021/12/16 22:13:15;;;;;;;16.17;11.20;;;4.80;99.90;;;;;;1884487;75;21099;-79
2021/12/16 22:16:10;;;;;;;17.57;12.13;;;4.80;99.90;;;;;;1890304;75;21116;-81
2021/12/16 22:19:21;;;;;;;16.60;11.53;;;4.80;99.90;;;;;;1913366;75;21148;-79
2021/12/16 22:22:12;;;;;;;17.90;12.30;;;4.80;99.90;;;;;;1887248;75;21541;-79
2021/12/16 22:25:05;;;;;;;18.57;11.50;;;4.80;99.90;;;;;;1907784;73;21078;-79
2021/12/16 22:27:57;;;;;;;17.32;11.70;;;4.80;99.90;;;;;;1902361;75;21170;-79
2021/12/16 22:30:49;;;;;;;17.92;12.30;;;4.80;99.90;;;;;;1885019;75;21152;-80
2021/12/16 22:33:42;;;;;;;15.72;10.80;;;4.90;99.90;;;;;;1898030;75;21090;-79
2021/12/16 22:36:34;;;;;;;16.97;11.43;;;4.80;99.90;;;;;;1908438;75;21103;-81
2021/12/16 22:39:29;;;;;;;17.30;11.80;;;4.80;99.90;;;;;;1906281;75;21207;-79
2021/12/16 22:42:20;;;;;;;17.25;11.97;;;4.80;99.90;;;;;;1891531;75;21062;-80
2021/12/16 22:47:53;;;;;;;17.90;11.97;;;4.80;99.90;;;;;;1949553;72;22173;-81
2021/12/16 22:53:23;;;;;;;18.00;12.07;;;4.80;99.90;;;;;;1942299;72;22150;-80
2021/12/16 22:56:14;;;;;;;18.62;13.00;;;4.80;99.90;;;;;;1914590;73;21160;-80
2021/12/16 22:59:05;;;;;;;16.85;11.57;;;4.80;99.90;;;;;;1888250;75;21131;-80
2021/12/16 23:04:37;;;;;;;17.42;11.95;;;4.70;99.90;;;;;;1957475;72;22193;-80
2021/12/16 23:07:29;;;;;;;17.20;11.55;;;4.70;99.90;;;;;;1905540;75;21193;-80
2021/12/16 23:10:22;;;;;;;16.23;11.08;;;4.70;99.90;;;;;;1905103;75;21058;-80
2021/12/16 23:13:13;;;;;;;15.65;11.10;;;4.80;99.90;;;;;;1905879;74;21057;-79
2021/12/16 23:16:37;;;;;;;16.75;11.28;;;4.70;99.90;;;;;;1913895;74;21557;-79
2021/12/16 23:25:10;;;;;;;18.30;11.90;;;4.80;99.90;;;;;;1893025;75;21048;-80
2021/12/16 23:28:06;;;;;;;19.10;11.70;;;4.70;99.90;;;;;;1907023;75;21131;-80
2021/12/16 23:33:35;;;;;;;15.90;11.00;;;4.70;99.90;;;;;;1967029;72;22157;-80
2021/12/16 23:39:09;;;;;;;15.38;11.05;;;4.70;99.90;;;;;;1939907;72;22169;-80
2021/12/16 23:42:31;;;;;;;17.25;11.30;;;4.70;99.90;;;;;;1904359;75;21639;-80
2021/12/16 23:53:35;;;;;;;13.53;9.48;;;4.70;99.90;;;;;;1958357;72;22261;-80
2021/12/16 23:56:26;;;;;;;13.93;9.88;;;4.70;99.90;;;;;;1914779;75;21113;-79
